sensor_id;sensor_type;location;lat;lon;timestamp;pressure;altitude;pressure_sealevel;temperature;humidity
706;BME280;21234;48.690;9.016;2022-07-09T00:02:13;97288.28;;;13.37;71.23
706;BME280;21234;48.690;9.016;2022-07-09T00:04:40;97284.25;;;13.40;71.40
706;BME280;21234;48.690;9.016;2022-07-09T00:07:07;97280.34;;;13.36;70.98
706;BME280;21234;48.690;9.016;2022-07-09T00:09:34;97278.97;;;13.22;72.15
706;BME280;21234;48.690;9.016;2022-07-09T00:12:00;97276.84;;;13.24;72.52
706;BME280;21234;48.690;9.016;2022-07-09T00:14:27;97280.88;;;13.21;71.86
706;BME280;21234;48.690;9.016;2022-07-09T00:16:56;97277.09;;;13.22;72.18
706;BME280;21234;48.690;9.016;2022-07-09T00:19:23;97272.94;;;13.20;71.88
706;BME280;21234;48.690;9.016;2022-07-09T00:21:49;97270.06;;;13.15;71.87
706;BME280;21234;48.690;9.016;2022-07-09T00:24:16;97271.75;;;13.16;71.60
706;BME280;21234;48.690;9.016;2022-07-09T00:26:43;97270.91;;;13.03;72.15
706;BME280;21234;48.690;9.016;2022-07-09T00:29:10;97272.75;;;12.98;72.34
706;BME280;21234;48.690;9.016;2022-07-09T00:31:36;97265.50;;;12.92;72.50
706;BME280;21234;48.690;9.016;2022-07-09T00:34:04;97260.41;;;12.95;72.59
706;BME280;21234;48.690;9.016;2022-07-09T00:36:31;97258.75;;;12.94;73.06
706;BME280;21234;48.690;9.016;2022-07-09T00:38:58;97260.63;;;12.94;72.67
706;BME280;21234;48.690;9.016;2022-07-09T00:41:25;97258.53;;;12.84;72.11
706;BME280;21234;48.690;9.016;2022-07-09T00:43:51;97251.16;;;12.85;73.14
706;BME280;21234;48.690;9.016;2022-07-09T00:46:18;97253.88;;;12.85;73.17
706;BME280;21234;48.690;9.016;2022-07-09T00:48:45;97241.44;;;12.89;73.38
706;BME280;21234;48.690;9.016;2022-07-09T00:51:14;97245.94;;;12.83;72.73
706;BME280;21234;48.690;9.016;2022-07-09T00:53:44;97236.34;;;12.81;73.22
706;BME280;21234;48.690;9.016;2022-07-09T00:56:12;97245.25;;;12.76;73.65
706;BME280;21234;48.690;9.016;2022-07-09T00:58:39;97230.53;;;12.77;74.15
706;BME280;21234;48.690;9.016;2022-07-09T01:01:08;97229.81;;;12.70;74.39
706;BME280;21234;48.690;9.016;2022-07-09T01:03:35;97228.16;;;12.69;74.49
706;BME280;21234;48.690;9.016;2022-07-09T01:06:02;97226.19;;;12.64;74.15
706;BME280;21234;48.690;9.016;2022-07-09T01:08:30;97226.25;;;12.69;74.47
706;BME280;21234;48.690;9.016;2022-07-09T01:10:57;97224.13;;;12.71;74.44
706;BME280;21234;48.690;9.016;2022-07-09T01:13:24;97219.16;;;12.68;74.25
706;BME280;21234;48.690;9.016;2022-07-09T01:15:51;97224.38;;;12.70;74.28
706;BME280;21234;48.690;9.016;2022-07-09T01:18:18;97221.78;;;12.63;75.05
706;BME280;21234;48.690;9.016;2022-07-09T01:20:46;97221.19;;;12.61;75.24
706;BME280;21234;48.690;9.016;2022-07-09T01:23:13;97215.75;;;12.61;75.42
706;BME280;21234;48.690;9.016;2022-07-09T01:25:41;97222.88;;;12.51;75.85
706;BME280;21234;48.690;9.016;2022-07-09T01:28:09;97224.19;;;12.48;76.09
706;BME280;21234;48.690;9.016;2022-07-09T01:30:39;97212.69;;;12.46;76.32
706;BME280;21234;48.690;9.016;2022-07-09T01:33:06;97210.31;;;12.38;75.91
706;BME280;21234;48.690;9.016;2022-07-09T01:35:33;97208.88;;;12.35;76.93
706;BME280;21234;48.690;9.016;2022-07-09T01:38:02;97206.88;;;12.42;76.38
706;BME280;21234;48.690;9.016;2022-07-09T01:40:29;97200.09;;;12.45;76.28
706;BME280;21234;48.690;9.016;2022-07-09T01:42:56;97206.63;;;12.44;76.39
706;BME280;21234;48.690;9.016;2022-07-09T01:45:23;97207.50;;;12.33;77.12
706;BME280;21234;48.690;9.016;2022-07-09T01:47:50;97202.88;;;12.22;76.65
706;BME280;21234;48.690;9.016;2022-07-09T01:50:17;97208.31;;;12.22;76.82
706;BME280;21234;48.690;9.016;2022-07-09T01:52:44;97204.53;;;12.23;77.16
706;BME280;21234;48.690;9.016;2022-07-09T01:55:12;97203.22;;;12.14;76.77
706;BME280;21234;48.690;9.016;2022-07-09T01:57:38;97205.13;;;12.13;76.68
706;BME280;21234;48.690;9.016;2022-07-09T02:00:06;97205.81;;;12.08;77.79
706;BME280;21234;48.690;9.016;2022-07-09T02:02:34;97196.94;;;12.13;77.42
706;BME280;21234;48.690;9.016;2022-07-09T02:05:01;97199.56;;;12.20;77.63
706;BME280;21234;48.690;9.016;2022-07-09T02:07:27;97197.78;;;12.14;78.28
706;BME280;21234;48.690;9.016;2022-07-09T02:09:54;97192.91;;;12.04;79.18
706;BME280;21234;48.690;9.016;2022-07-09T02:12:22;97184.88;;;11.97;79.33
706;BME280;21234;48.690;9.016;2022-07-09T02:14:49;97187.84;;;11.96;79.28
706;BME280;21234;48.690;9.016;2022-07-09T02:17:16;97187.84;;;11.96;79.11
706;BME280;21234;48.690;9.016;2022-07-09T02:19:42;97186.16;;;12.06;78.45
706;BME280;21234;48.690;9.016;2022-07-09T02:22:09;97189.50;;;11.97;79.21
706;BME280;21234;48.690;9.016;2022-07-09T02:24:36;97189.63;;;12.02;78.53
706;BME280;21234;48.690;9.016;2022-07-09T02:27:03;97179.28;;;11.92;78.42
706;BME280;21234;48.690;9.016;2022-07-09T02:29:32;97179.53;;;11.91;78.45
706;BME280;21234;48.690;9.016;2022-07-09T02:31:58;97182.50;;;11.89;78.97
706;BME280;21234;48.690;9.016;2022-07-09T02:34:25;97184.72;;;11.81;79.13
706;BME280;21234;48.690;9.016;2022-07-09T02:36:52;97188.59;;;11.73;78.89
706;BME280;21234;48.690;9.016;2022-07-09T02:39:19;97190.84;;;11.76;79.07
706;BME280;21234;48.690;9.016;2022-07-09T02:41:45;97188.03;;;11.83;78.16
706;BME280;21234;48.690;9.016;2022-07-09T02:44:12;97188.50;;;11.80;78.22
706;BME280;21234;48.690;9.016;2022-07-09T02:46:40;97175.03;;;11.85;78.34
706;BME280;21234;48.690;9.016;2022-07-09T02:49:07;97184.03;;;11.85;77.91
706;BME280;21234;48.690;9.016;2022-07-09T02:51:35;97190.78;;;11.83;78.03
706;BME280;21234;48.690;9.016;2022-07-09T02:54:03;97185.41;;;11.76;77.79
706;BME280;21234;48.690;9.016;2022-07-09T02:56:29;97192.59;;;11.70;78.49
706;BME280;21234;48.690;9.016;2022-07-09T02:58:56;97193.69;;;11.69;78.63
706;BME280;21234;48.690;9.016;2022-07-09T03:01:23;97185.63;;;11.74;78.82
706;BME280;21234;48.690;9.016;2022-07-09T03:03:51;97177.69;;;11.73;78.70
706;BME280;21234;48.690;9.016;2022-07-09T03:06:18;97188.88;;;11.83;78.92
706;BME280;21234;48.690;9.016;2022-07-09T03:08:45;97185.63;;;11.74;78.92
706;BME280;21234;48.690;9.016;2022-07-09T03:11:12;97186.09;;;11.71;78.91
706;BME280;21234;48.690;9.016;2022-07-09T03:13:38;97177.22;;;11.64;79.04
706;BME280;21234;48.690;9.016;2022-07-09T03:16:06;97179.69;;;11.54;79.66
706;BME280;21234;48.690;9.016;2022-07-09T03:18:33;97175.91;;;11.55;80.21
706;BME280;21234;48.690;9.016;2022-07-09T03:21:01;97181.59;;;11.54;79.65
706;BME280;21234;48.690;9.016;2022-07-09T03:23:28;97188.19;;;11.46;80.38
706;BME280;21234;48.690;9.016;2022-07-09T03:25:55;97190.94;;;11.58;79.77
706;BME280;21234;48.690;9.016;2022-07-09T03:28:21;97192.38;;;11.60;79.57
706;BME280;21234;48.690;9.016;2022-07-09T03:30:48;97188.78;;;11.48;79.86
706;BME280;21234;48.690;9.016;2022-07-09T03:33:15;97190.78;;;11.41;80.39
706;BME280;21234;48.690;9.016;2022-07-09T03:35:42;97184.50;;;11.40;79.90
706;BME280;21234;48.690;9.016;2022-07-09T03:38:10;97180.84;;;11.47;79.69
706;BME280;21234;48.690;9.016;2022-07-09T03:40:37;97185.25;;;11.48;79.60
706;BME280;21234;48.690;9.016;2022-07-09T03:43:04;97180.03;;;11.46;80.24
706;BME280;21234;48.690;9.016;2022-07-09T03:45:31;97184.03;;;11.43;80.52
706;BME280;21234;48.690;9.016;2022-07-09T03:47:57;97189.72;;;11.42;80.03
706;BME280;21234;48.690;9.016;2022-07-09T03:50:24;97190.69;;;11.48;80.02
706;BME280;21234;48.690;9.016;2022-07-09T03:52:51;97190.69;;;11.48;79.98
706;BME280;21234;48.690;9.016;2022-07-09T03:55:19;97195.75;;;11.32;80.97
706;BME280;21234;48.690;9.016;2022-07-09T03:57:46;97180.84;;;11.35;81.59
706;BME280;21234;48.690;9.016;2022-07-09T04:00:14;97187.22;;;11.40;81.08
706;BME280;21234;48.690;9.016;2022-07-09T04:02:40;97184.03;;;11.32;81.75
706;BME280;21234;48.690;9.016;2022-07-09T04:05:08;97186.63;;;11.38;81.58
706;BME280;21234;48.690;9.016;2022-07-09T04:07:35;97187.97;;;11.48;80.87
706;BME280;21234;48.690;9.016;2022-07-09T04:10:02;97194.25;;;11.48;79.65
706;BME280;21234;48.690;9.016;2022-07-09T04:12:30;97183.69;;;11.40;79.42
706;BME280;21234;48.690;9.016;2022-07-09T04:14:57;97192.84;;;11.57;80.56
706;BME280;21234;48.690;9.016;2022-07-09T04:17:23;97192.38;;;11.60;80.56
706;BME280;21234;48.690;9.016;2022-07-09T04:19:50;97192.38;;;11.60;79.86
706;BME280;21234;48.690;9.016;2022-07-09T04:22:17;97187.06;;;11.65;79.76
706;BME280;21234;48.690;9.016;2022-07-09T04:24:44;97189.66;;;11.60;80.34
706;BME280;21234;48.690;9.016;2022-07-09T04:27:10;97197.59;;;11.62;79.06
706;BME280;21234;48.690;9.016;2022-07-09T04:29:39;97195.00;;;11.67;80.19
706;BME280;21234;48.690;9.016;2022-07-09T04:32:06;97202.31;;;11.55;79.56
706;BME280;21234;48.690;9.016;2022-07-09T04:34:33;97197.13;;;11.65;80.01
706;BME280;21234;48.690;9.016;2022-07-09T04:37:00;97200.22;;;11.68;79.40
706;BME280;21234;48.690;9.016;2022-07-09T04:39:27;97201.47;;;11.54;80.81
706;BME280;21234;48.690;9.016;2022-07-09T04:41:54;97199.38;;;11.68;80.36
706;BME280;21234;48.690;9.016;2022-07-09T04:44:20;97206.34;;;11.64;79.61
706;BME280;21234;48.690;9.016;2022-07-09T04:46:48;97199.63;;;11.66;79.98
706;BME280;21234;48.690;9.016;2022-07-09T04:49:15;97198.19;;;11.75;80.69
706;BME280;21234;48.690;9.016;2022-07-09T04:51:42;97202.97;;;11.80;80.15
706;BME280;21234;48.690;9.016;2022-07-09T04:54:08;97198.00;;;11.77;80.63
706;BME280;21234;48.690;9.016;2022-07-09T04:56:35;97204.84;;;11.80;78.94
706;BME280;21234;48.690;9.016;2022-07-09T04:59:02;97193.50;;;11.94;79.12
706;BME280;21234;48.690;9.016;2022-07-09T05:01:29;97202.72;;;12.05;78.61
706;BME280;21234;48.690;9.016;2022-07-09T05:03:57;97204.41;;;12.06;77.90
706;BME280;21234;48.690;9.016;2022-07-09T05:06:24;97200.25;;;12.15;80.01
706;BME280;21234;48.690;9.016;2022-07-09T05:08:51;97192.31;;;12.25;78.90
706;BME280;21234;48.690;9.016;2022-07-09T05:11:17;97198.38;;;12.27;78.72
706;BME280;21234;48.690;9.016;2022-07-09T05:13:44;97196.72;;;12.26;78.66
706;BME280;21234;48.690;9.016;2022-07-09T05:16:12;97204.53;;;12.34;77.78
706;BME280;21234;48.690;9.016;2022-07-09T05:18:39;97195.13;;;12.54;76.96
706;BME280;21234;48.690;9.016;2022-07-09T05:21:07;97194.03;;;12.66;77.76
706;BME280;21234;48.690;9.016;2022-07-09T05:23:35;97195.34;;;12.64;78.39
706;BME280;21234;48.690;9.016;2022-07-09T05:26:02;97187.34;;;12.74;77.61
706;BME280;21234;48.690;9.016;2022-07-09T05:28:29;97192.19;;;12.84;77.10
706;BME280;21234;48.690;9.016;2022-07-09T05:30:56;97187.19;;;12.92;73.56
706;BME280;21234;48.690;9.016;2022-07-09T05:33:23;97189.13;;;13.08;73.25
706;BME280;21234;48.690;9.016;2022-07-09T05:35:50;97194.59;;;13.20;72.88
706;BME280;21234;48.690;9.016;2022-07-09T05:38:19;97196.38;;;13.43;71.24
706;BME280;21234;48.690;9.016;2022-07-09T05:40:46;97190.84;;;13.55;69.61
706;BME280;21234;48.690;9.016;2022-07-09T05:43:13;97197.97;;;13.72;68.86
706;BME280;21234;48.690;9.016;2022-07-09T05:45:40;97193.41;;;13.78;68.43
706;BME280;21234;48.690;9.016;2022-07-09T05:48:07;97199.16;;;13.93;67.96
706;BME280;21234;48.690;9.016;2022-07-09T05:50:36;97188.69;;;14.07;68.31
706;BME280;21234;48.690;9.016;2022-07-09T05:53:04;97201.53;;;14.23;67.70
706;BME280;21234;48.690;9.016;2022-07-09T05:55:37;97197.59;;;14.36;69.08
706;BME280;21234;48.690;9.016;2022-07-09T05:58:05;97209.47;;;14.63;67.55
706;BME280;21234;48.690;9.016;2022-07-09T06:00:32;97204.72;;;14.75;64.62
706;BME280;21234;48.690;9.016;2022-07-09T06:02:58;97206.28;;;14.88;64.42
706;BME280;21234;48.690;9.016;2022-07-09T06:05:25;97199.06;;;15.04;65.55
706;BME280;21234;48.690;9.016;2022-07-09T06:07:52;97199.94;;;15.09;64.56
706;BME280;21234;48.690;9.016;2022-07-09T06:10:19;97199.34;;;15.29;62.38
706;BME280;21234;48.690;9.016;2022-07-09T06:12:47;97197.47;;;15.35;62.52
706;BME280;21234;48.690;9.016;2022-07-09T06:15:14;97203.38;;;15.49;62.87
706;BME280;21234;48.690;9.016;2022-07-09T06:17:41;97198.75;;;15.76;63.02
706;BME280;21234;48.690;9.016;2022-07-09T06:20:08;97199.09;;;15.85;60.85
706;BME280;21234;48.690;9.016;2022-07-09T06:22:35;97195.13;;;16.02;60.22
706;BME280;21234;48.690;9.016;2022-07-09T06:25:04;97197.41;;;16.16;60.71
706;BME280;21234;48.690;9.016;2022-07-09T06:27:31;97198.94;;;16.38;60.37
706;BME280;21234;48.690;9.016;2022-07-09T06:29:59;97195.22;;;16.55;59.84
706;BME280;21234;48.690;9.016;2022-07-09T06:32:26;97195.22;;;16.60;57.59
706;BME280;21234;48.690;9.016;2022-07-09T06:34:53;97195.28;;;16.65;58.50
706;BME280;21234;48.690;9.016;2022-07-09T06:37:20;97195.13;;;16.87;58.06
706;BME280;21234;48.690;9.016;2022-07-09T06:39:47;97197.31;;;16.85;58.05
706;BME280;21234;48.690;9.016;2022-07-09T06:42:16;97188.81;;;16.91;57.51
706;BME280;21234;48.690;9.016;2022-07-09T06:44:44;97192.47;;;17.07;56.23
706;BME280;21234;48.690;9.016;2022-07-09T06:47:12;97198.28;;;17.21;55.66
706;BME280;21234;48.690;9.016;2022-07-09T06:49:39;97198.56;;;17.29;55.73
706;BME280;21234;48.690;9.016;2022-07-09T06:52:07;97193.97;;;17.60;55.63
706;BME280;21234;48.690;9.016;2022-07-09T06:54:34;97192.09;;;18.11;55.04
706;BME280;21234;48.690;9.016;2022-07-09T06:57:01;97185.47;;;18.48;53.21
706;BME280;21234;48.690;9.016;2022-07-09T06:59:28;97182.38;;;18.75;51.08
706;BME280;21234;48.690;9.016;2022-07-09T07:01:55;97191.50;;;18.70;52.48
706;BME280;21234;48.690;9.016;2022-07-09T07:04:23;97186.13;;;19.09;52.84
706;BME280;21234;48.690;9.016;2022-07-09T07:06:52;97179.22;;;19.12;52.51
706;BME280;21234;48.690;9.016;2022-07-09T07:09:19;97182.13;;;19.31;49.88
706;BME280;21234;48.690;9.016;2022-07-09T07:11:47;97181.22;;;19.51;49.28
706;BME280;21234;48.690;9.016;2022-07-09T07:14:14;97176.25;;;19.53;50.87
706;BME280;21234;48.690;9.016;2022-07-09T07:16:41;97186.25;;;19.83;49.04
706;BME280;21234;48.690;9.016;2022-07-09T07:19:09;97180.66;;;19.54;50.89
706;BME280;21234;48.690;9.016;2022-07-09T07:21:38;97182.63;;;18.84;51.20
706;BME280;21234;48.690;9.016;2022-07-09T07:24:05;97183.25;;;18.50;54.10
706;BME280;21234;48.690;9.016;2022-07-09T07:26:32;97190.47;;;18.16;54.17
706;BME280;21234;48.690;9.016;2022-07-09T07:28:59;97187.16;;;18.03;54.54
706;BME280;21234;48.690;9.016;2022-07-09T07:31:26;97183.28;;;17.94;54.73
706;BME280;21234;48.690;9.016;2022-07-09T07:33:53;97186.06;;;18.09;53.54
706;BME280;21234;48.690;9.016;2022-07-09T07:36:20;97177.72;;;18.65;54.89
706;BME280;21234;48.690;9.016;2022-07-09T07:38:48;97181.41;;;19.15;50.37
706;BME280;21234;48.690;9.016;2022-07-09T07:41:15;97181.25;;;19.40;50.87
706;BME280;21234;48.690;9.016;2022-07-09T07:43:43;97182.31;;;19.94;50.53
706;BME280;21234;48.690;9.016;2022-07-09T07:46:10;97179.97;;;20.45;52.07
706;BME280;21234;48.690;9.016;2022-07-09T07:48:37;97179.38;;;20.96;48.30
706;BME280;21234;48.690;9.016;2022-07-09T07:51:06;97185.72;;;21.44;45.92
706;BME280;21234;48.690;9.016;2022-07-09T07:53:33;97179.44;;;21.76;43.36
706;BME280;21234;48.690;9.016;2022-07-09T07:56:03;97179.53;;;21.71;43.52
706;BME280;21234;48.690;9.016;2022-07-09T07:58:29;97179.50;;;21.90;41.87
706;BME280;21234;48.690;9.016;2022-07-09T08:00:56;97175.75;;;21.80;43.89
706;BME280;21234;48.690;9.016;2022-07-09T08:03:23;97179.34;;;22.00;42.20
706;BME280;21234;48.690;9.016;2022-07-09T08:05:50;97186.59;;;22.15;43.93
706;BME280;21234;48.690;9.016;2022-07-09T08:08:16;97183.63;;;22.57;43.33
706;BME280;21234;48.690;9.016;2022-07-09T08:10:44;97165.59;;;22.73;41.94
706;BME280;21234;48.690;9.016;2022-07-09T08:13:12;97169.00;;;22.84;43.00
706;BME280;21234;48.690;9.016;2022-07-09T08:15:39;97177.97;;;22.95;39.43
706;BME280;21234;48.690;9.016;2022-07-09T08:18:06;97170.75;;;22.80;40.95
706;BME280;21234;48.690;9.016;2022-07-09T08:20:37;97172.50;;;22.90;40.63
706;BME280;21234;48.690;9.016;2022-07-09T08:23:05;97176.31;;;22.94;41.94
706;BME280;21234;48.690;9.016;2022-07-09T08:25:32;97169.63;;;23.08;43.27
706;BME280;21234;48.690;9.016;2022-07-09T08:27:59;97166.34;;;23.34;41.88
706;BME280;21234;48.690;9.016;2022-07-09T08:30:27;97167.56;;;23.28;43.32
706;BME280;21234;48.690;9.016;2022-07-09T08:32:54;97163.78;;;22.96;42.93
706;BME280;21234;48.690;9.016;2022-07-09T08:35:20;97164.97;;;22.76;42.87
706;BME280;21234;48.690;9.016;2022-07-09T08:37:47;97164.59;;;22.83;43.93
706;BME280;21234;48.690;9.016;2022-07-09T08:40:14;97161.53;;;22.98;42.07
706;BME280;21234;48.690;9.016;2022-07-09T08:42:41;97154.31;;;23.11;44.25
706;BME280;21234;48.690;9.016;2022-07-09T08:45:11;97154.44;;;23.06;42.97
706;BME280;21234;48.690;9.016;2022-07-09T08:47:40;97157.09;;;23.38;41.00
706;BME280;21234;48.690;9.016;2022-07-09T08:50:08;97152.81;;;23.05;44.50
706;BME280;21234;48.690;9.016;2022-07-09T08:52:35;97152.88;;;23.13;43.12
706;BME280;21234;48.690;9.016;2022-07-09T08:55:02;97147.56;;;23.03;42.06
706;BME280;21234;48.690;9.016;2022-07-09T08:57:29;97148.63;;;23.43;45.34
706;BME280;21234;48.690;9.016;2022-07-09T08:59:57;97141.88;;;23.72;43.22
706;BME280;21234;48.690;9.016;2022-07-09T09:02:23;97145.69;;;23.76;43.08
706;BME280;21234;48.690;9.016;2022-07-09T09:04:54;97140.59;;;23.92;42.76
706;BME280;21234;48.690;9.016;2022-07-09T09:07:21;97137.25;;;24.03;42.07
706;BME280;21234;48.690;9.016;2022-07-09T09:09:48;97134.91;;;23.97;42.37
706;BME280;21234;48.690;9.016;2022-07-09T09:12:15;97132.78;;;23.94;38.69
706;BME280;21234;48.690;9.016;2022-07-09T09:14:48;97128.53;;;23.96;40.64
706;BME280;21234;48.690;9.016;2022-07-09T09:17:15;97119.75;;;23.81;41.65
706;BME280;21234;48.690;9.016;2022-07-09T09:19:42;97121.19;;;23.78;40.23
706;BME280;21234;48.690;9.016;2022-07-09T09:22:10;97124.56;;;23.89;41.48
706;BME280;21234;48.690;9.016;2022-07-09T09:24:41;97116.94;;;23.94;40.23
706;BME280;21234;48.690;9.016;2022-07-09T09:27:08;97119.53;;;24.35;41.11
706;BME280;21234;48.690;9.016;2022-07-09T09:29:35;97114.03;;;24.53;40.40
706;BME280;21234;48.690;9.016;2022-07-09T09:32:09;97107.41;;;24.40;41.94
706;BME280;21234;48.690;9.016;2022-07-09T09:34:37;97112.31;;;24.34;40.12
706;BME280;21234;48.690;9.016;2022-07-09T09:37:06;97114.91;;;24.62;42.61
706;BME280;21234;48.690;9.016;2022-07-09T09:39:35;97108.47;;;24.53;36.44
706;BME280;21234;48.690;9.016;2022-07-09T09:42:03;97106.09;;;24.37;40.42
706;BME280;21234;48.690;9.016;2022-07-09T09:44:32;97106.75;;;24.34;37.33
706;BME280;21234;48.690;9.016;2022-07-09T09:47:03;97102.50;;;24.37;35.95
706;BME280;21234;48.690;9.016;2022-07-09T09:49:31;97112.22;;;24.48;38.02
706;BME280;21234;48.690;9.016;2022-07-09T09:52:03;97108.22;;;24.32;37.81
706;BME280;21234;48.690;9.016;2022-07-09T09:54:32;97101.66;;;24.59;36.36
706;BME280;21234;48.690;9.016;2022-07-09T09:57:04;97097.13;;;24.80;36.81
706;BME280;21234;48.690;9.016;2022-07-09T09:59:32;97104.06;;;24.52;37.47
706;BME280;21234;48.690;9.016;2022-07-09T10:02:01;97105.59;;;24.13;37.07
706;BME280;21234;48.690;9.016;2022-07-09T10:04:28;97095.97;;;24.33;37.62
706;BME280;21234;48.690;9.016;2022-07-09T10:06:55;97093.03;;;24.38;37.79
706;BME280;21234;48.690;9.016;2022-07-09T10:09:22;97087.75;;;24.59;37.13
706;BME280;21234;48.690;9.016;2022-07-09T10:11:49;97093.16;;;24.64;36.62
706;BME280;21234;48.690;9.016;2022-07-09T10:14:29;97084.28;;;24.53;37.41
706;BME280;21234;48.690;9.016;2022-07-09T10:16:56;97080.75;;;24.70;37.07
706;BME280;21234;48.690;9.016;2022-07-09T10:19:24;97084.38;;;24.79;36.01
706;BME280;21234;48.690;9.016;2022-07-09T10:21:52;97082.13;;;24.90;36.39
706;BME280;21234;48.690;9.016;2022-07-09T10:24:24;97076.31;;;25.00;36.83
706;BME280;21234;48.690;9.016;2022-07-09T10:26:51;97072.97;;;24.50;38.48
706;BME280;21234;48.690;9.016;2022-07-09T10:29:23;97076.28;;;23.76;39.78
706;BME280;21234;48.690;9.016;2022-07-09T10:31:51;97075.41;;;23.31;38.48
706;BME280;21234;48.690;9.016;2022-07-09T10:34:43;97071.69;;;22.99;40.53
706;BME280;21234;48.690;9.016;2022-07-09T10:37:11;97067.84;;;23.45;37.88
706;BME280;21234;48.690;9.016;2022-07-09T10:39:38;97071.81;;;23.89;37.03
706;BME280;21234;48.690;9.016;2022-07-09T10:42:06;97065.47;;;24.50;38.54
706;BME280;21234;48.690;9.016;2022-07-09T10:44:38;97068.09;;;24.55;36.08
706;BME280;21234;48.690;9.016;2022-07-09T10:47:06;97068.97;;;24.73;37.11
706;BME280;21234;48.690;9.016;2022-07-09T10:49:34;97070.81;;;24.86;37.27
706;BME280;21234;48.690;9.016;2022-07-09T10:52:03;97052.25;;;24.95;38.01
706;BME280;21234;48.690;9.016;2022-07-09T10:54:30;97061.28;;;25.27;38.05
706;BME280;21234;48.690;9.016;2022-07-09T10:56:57;97069.09;;;25.07;37.29
706;BME280;21234;48.690;9.016;2022-07-09T10:59:24;97057.09;;;24.90;39.60
706;BME280;21234;48.690;9.016;2022-07-09T11:01:53;97060.53;;;24.87;37.13
706;BME280;21234;48.690;9.016;2022-07-09T11:04:28;97059.25;;;24.22;37.31
706;BME280;21234;48.690;9.016;2022-07-09T11:06:56;97055.47;;;23.65;38.92
706;BME280;21234;48.690;9.016;2022-07-09T11:09:25;97059.91;;;23.30;41.00
706;BME280;21234;48.690;9.016;2022-07-09T11:11:53;97047.50;;;23.13;40.05
706;BME280;21234;48.690;9.016;2022-07-09T11:14:20;97058.84;;;22.90;42.59
706;BME280;21234;48.690;9.016;2022-07-09T11:16:55;97055.66;;;22.69;42.90
706;BME280;21234;48.690;9.016;2022-07-09T11:19:24;97059.06;;;22.38;43.85
706;BME280;21234;48.690;9.016;2022-07-09T11:22:00;97054.22;;;22.30;43.33
706;BME280;21234;48.690;9.016;2022-07-09T11:24:28;97059.34;;;22.23;45.89
706;BME280;21234;48.690;9.016;2022-07-09T11:27:06;97052.56;;;22.29;45.41
706;BME280;21234;48.690;9.016;2022-07-09T11:29:35;97046.13;;;22.61;44.29
706;BME280;21234;48.690;9.016;2022-07-09T11:32:04;97050.38;;;23.08;43.72
706;BME280;21234;48.690;9.016;2022-07-09T11:34:31;97058.56;;;23.27;43.91
706;BME280;21234;48.690;9.016;2022-07-09T11:36:58;97049.06;;;23.06;43.11
706;BME280;21234;48.690;9.016;2022-07-09T11:39:26;97051.88;;;22.78;42.41
706;BME280;21234;48.690;9.016;2022-07-09T11:41:54;97044.88;;;22.67;43.93
706;BME280;21234;48.690;9.016;2022-07-09T11:44:22;97054.22;;;22.44;43.20
706;BME280;21234;48.690;9.016;2022-07-09T11:47:05;97043.16;;;22.30;44.69
706;BME280;21234;48.690;9.016;2022-07-09T11:49:37;97038.63;;;22.21;45.65
706;BME280;21234;48.690;9.016;2022-07-09T11:52:04;97038.91;;;22.19;45.26
706;BME280;21234;48.690;9.016;2022-07-09T11:54:32;97036.84;;;22.11;46.05
706;BME280;21234;48.690;9.016;2022-07-09T11:56:58;97043.22;;;22.11;46.43
706;BME280;21234;48.690;9.016;2022-07-09T11:59:26;97041.25;;;22.12;45.90
706;BME280;21234;48.690;9.016;2022-07-09T12:01:57;97036.53;;;22.12;45.63
706;BME280;21234;48.690;9.016;2022-07-09T12:04:28;97032.25;;;22.20;45.60
706;BME280;21234;48.690;9.016;2022-07-09T12:06:56;97029.69;;;22.24;46.02
706;BME280;21234;48.690;9.016;2022-07-09T12:09:29;97025.09;;;22.33;46.01
706;BME280;21234;48.690;9.016;2022-07-09T12:11:57;97019.63;;;22.55;45.35
706;BME280;21234;48.690;9.016;2022-07-09T12:14:24;97021.59;;;22.68;44.17
706;BME280;21234;48.690;9.016;2022-07-09T12:16:51;97016.28;;;23.08;44.19
706;BME280;21234;48.690;9.016;2022-07-09T12:19:18;97012.97;;;23.42;43.12
706;BME280;21234;48.690;9.016;2022-07-09T12:21:46;97009.84;;;23.35;42.52
706;BME280;21234;48.690;9.016;2022-07-09T12:24:13;97012.44;;;23.54;43.97
706;BME280;21234;48.690;9.016;2022-07-09T12:26:40;97006.13;;;23.84;43.38
706;BME280;21234;48.690;9.016;2022-07-09T12:29:07;97003.56;;;23.65;43.23
706;BME280;21234;48.690;9.016;2022-07-09T12:31:33;97002.06;;;23.45;43.34
706;BME280;21234;48.690;9.016;2022-07-09T12:34:03;97001.84;;;23.33;44.00
706;BME280;21234;48.690;9.016;2022-07-09T12:36:30;96988.81;;;22.98;44.02
706;BME280;21234;48.690;9.016;2022-07-09T12:38:58;96992.13;;;22.72;44.96
706;BME280;21234;48.690;9.016;2022-07-09T12:41:24;96989.34;;;22.72;45.28
706;BME280;21234;48.690;9.016;2022-07-09T12:43:51;96987.22;;;22.69;45.29
706;BME280;21234;48.690;9.016;2022-07-09T12:46:18;96983.91;;;22.67;44.88
706;BME280;21234;48.690;9.016;2022-07-09T12:48:45;96979.59;;;23.11;43.51
706;BME280;21234;48.690;9.016;2022-07-09T12:51:11;96974.03;;;23.25;43.38
706;BME280;21234;48.690;9.016;2022-07-09T12:53:38;96973.16;;;23.38;41.63
706;BME280;21234;48.690;9.016;2022-07-09T12:56:07;96968.19;;;23.71;43.57
706;BME280;21234;48.690;9.016;2022-07-09T12:58:33;96970.94;;;24.33;42.22
706;BME280;21234;48.690;9.016;2022-07-09T13:01:00;96974.25;;;24.52;37.86
706;BME280;21234;48.690;9.016;2022-07-09T13:03:27;96975.81;;;23.96;39.53
706;BME280;21234;48.690;9.016;2022-07-09T13:05:54;96962.75;;;23.66;40.87
706;BME280;21234;48.690;9.016;2022-07-09T13:08:21;96960.50;;;23.76;41.96
706;BME280;21234;48.690;9.016;2022-07-09T13:10:47;96958.22;;;24.09;41.17
706;BME280;21234;48.690;9.016;2022-07-09T13:13:16;96959.34;;;24.08;40.80
706;BME280;21234;48.690;9.016;2022-07-09T13:15:43;96960.34;;;24.04;41.62
706;BME280;21234;48.690;9.016;2022-07-09T13:18:09;96956.75;;;24.12;40.79
706;BME280;21234;48.690;9.016;2022-07-09T13:20:36;96955.09;;;24.02;41.22
706;BME280;21234;48.690;9.016;2022-07-09T13:23:03;96959.09;;;23.88;41.27
706;BME280;21234;48.690;9.016;2022-07-09T13:25:30;96954.91;;;23.45;40.38